createdAt,value
2019-04-06T00:01:09.926Z,19.03
2019-04-06T00:03:39.715Z,22.70
2019-04-06T00:06:09.629Z,21.67
2019-04-06T00:08:39.265Z,22.03
2019-04-06T00:11:09.096Z,18.60
2019-04-06T00:13:38.782Z,21.60
2019-04-06T00:16:08.327Z,22.37
2019-04-06T00:18:38.167Z,21.20
2019-04-06T00:21:07.662Z,21.77
2019-04-06T00:23:37.199Z,23.37
2019-04-06T00:26:06.609Z,21.43
2019-04-06T00:28:36.442Z,24.70
2019-04-06T00:31:22.838Z,21.57
2019-04-06T00:33:52.473Z,22.23
2019-04-06T00:36:22.065Z,20.03
2019-04-06T00:38:51.872Z,23.27
2019-04-06T00:41:21.598Z,22.87
2019-04-06T00:43:51.171Z,25.47
2019-04-06T00:46:20.918Z,22.73
2019-04-06T00:48:50.524Z,21.80
2019-04-06T00:51:20.087Z,21.50
2019-04-06T00:53:49.875Z,23.80
2019-04-06T00:56:19.590Z,23.67
2019-04-06T00:58:49.230Z,20.50
2019-04-06T01:01:19.394Z,21.83
2019-04-06T01:03:48.879Z,22.60
2019-04-06T01:06:18.730Z,30.90
2019-04-06T01:08:48.334Z,26.07
2019-04-06T01:11:18.284Z,27.13
2019-04-06T01:13:48.051Z,24.70
2019-04-06T01:16:17.546Z,24.83
2019-04-06T01:18:47.097Z,24.73
2019-04-06T01:21:16.807Z,26.93
2019-04-06T01:23:46.301Z,27.03
2019-04-06T01:26:16.038Z,27.37
2019-04-06T01:28:45.659Z,28.00
2019-04-06T01:31:15.166Z,23.97
2019-04-06T01:33:44.872Z,26.00
2019-04-06T01:36:14.449Z,23.43
2019-04-06T01:38:44.012Z,25.37
2019-04-06T01:41:13.778Z,26.93
2019-04-06T01:43:43.363Z,30.03
2019-04-06T01:46:12.810Z,29.77
2019-04-06T01:48:42.494Z,31.33
2019-04-06T01:51:12.203Z,31.53
2019-04-06T01:53:41.592Z,32.80
2019-04-06T01:56:18.366Z,31.23
2019-04-06T01:58:42.662Z,30.60
2019-04-06T02:01:18.509Z,33.30
2019-04-06T02:03:48.084Z,28.43
2019-04-06T02:06:17.914Z,29.50
2019-04-06T02:08:47.720Z,29.10
2019-04-06T02:11:17.332Z,29.43
2019-04-06T02:13:47.057Z,28.70
2019-04-06T02:16:16.825Z,25.00
2019-04-06T02:18:46.459Z,27.23
2019-04-06T02:21:15.858Z,27.43
2019-04-06T02:23:45.743Z,31.07
2019-04-06T02:26:15.590Z,28.77
2019-04-06T02:28:44.979Z,30.70
2019-04-06T02:31:23.568Z,31.87
2019-04-06T02:34:14.651Z,32.23
2019-04-06T02:36:55.450Z,31.43
2019-04-06T02:39:51.062Z,31.20
2019-04-06T02:42:42.965Z,32.27
2019-04-06T02:45:13.065Z,30.87
2019-04-06T02:47:42.548Z,35.00
2019-04-06T02:50:12.188Z,32.93
2019-04-06T02:52:41.701Z,30.13
2019-04-06T02:55:11.094Z,31.10
2019-04-06T02:57:40.669Z,34.97
2019-04-06T03:00:11.679Z,35.87
2019-04-06T03:02:41.542Z,37.43
2019-04-06T03:05:11.436Z,33.77
2019-04-06T03:07:41.146Z,32.33
2019-04-06T03:10:11.372Z,36.43
2019-04-06T03:12:41.345Z,33.33
2019-04-06T03:15:11.503Z,33.77
2019-04-06T03:17:40.902Z,30.40
2019-04-06T03:20:11.140Z,30.87
2019-04-06T03:22:40.937Z,26.73
2019-04-06T03:25:11.097Z,28.77
2019-04-06T03:27:40.885Z,28.67
2019-04-06T03:30:10.617Z,28.93
2019-04-06T03:32:40.452Z,28.67
2019-04-06T03:35:10.174Z,27.33
2019-04-06T03:37:39.662Z,30.37
2019-04-06T03:40:09.526Z,27.20
2019-04-06T03:42:38.911Z,29.03
2019-04-06T03:45:08.986Z,29.43
2019-04-06T03:47:38.767Z,32.80
2019-04-06T03:50:09.134Z,29.33
2019-04-06T03:52:38.777Z,26.97
2019-04-06T03:55:09.363Z,32.37
2019-04-06T03:57:39.268Z,29.23
2019-04-06T04:00:09.151Z,34.13
2019-04-06T04:02:38.720Z,29.60
2019-04-06T04:05:08.675Z,31.83
2019-04-06T04:07:38.381Z,32.40
2019-04-06T04:10:08.233Z,28.83
2019-04-06T04:12:37.903Z,30.30
2019-04-06T04:15:07.799Z,28.33
2019-04-06T04:17:37.522Z,27.80
2019-04-06T04:20:07.659Z,29.13
2019-04-06T04:22:37.106Z,27.37
2019-04-06T04:25:07.116Z,42.43
2019-04-06T04:27:40.824Z,33.23
2019-04-06T04:30:10.535Z,28.97
2019-04-06T04:32:39.929Z,29.60
2019-04-06T04:35:09.623Z,30.87
2019-04-06T04:37:39.157Z,32.23
2019-04-06T04:40:08.674Z,32.27
2019-04-06T04:42:38.370Z,43.30
2019-04-06T04:45:08.168Z,40.43
2019-04-06T04:47:38.135Z,35.90
2019-04-06T04:50:08.352Z,30.93
2019-04-06T04:52:37.849Z,32.20
2019-04-06T04:55:07.974Z,31.20
2019-04-06T04:57:40.956Z,32.10
2019-04-06T05:00:09.342Z,30.37
2019-04-06T05:02:39.048Z,31.70
2019-04-06T05:05:09.710Z,36.17
2019-04-06T05:07:39.485Z,36.43
2019-04-06T05:10:10.102Z,32.73
2019-04-06T05:12:39.617Z,30.80
2019-04-06T05:15:11.261Z,27.77
2019-04-06T05:17:41.071Z,34.57
2019-04-06T05:20:11.422Z,31.93
2019-04-06T05:22:40.928Z,31.77
2019-04-06T05:25:11.017Z,31.23
2019-04-06T05:27:51.223Z,33.57
2019-04-06T05:30:12.539Z,34.23
2019-04-06T05:32:41.940Z,30.67
2019-04-06T05:35:11.686Z,31.60
2019-04-06T05:37:41.216Z,35.10
2019-04-06T05:40:11.212Z,30.73
2019-04-06T05:42:40.638Z,31.70
2019-04-06T05:45:10.594Z,30.47
2019-04-06T05:47:40.278Z,34.90
2019-04-06T05:50:10.382Z,32.40
2019-04-06T05:52:40.222Z,29.73
2019-04-06T05:55:10.421Z,29.80
2019-04-06T05:57:39.913Z,33.63
2019-04-06T06:00:10.551Z,33.20
2019-04-06T06:02:41.787Z,33.97
2019-04-06T06:05:11.807Z,38.77
2019-04-06T06:07:41.525Z,35.93
2019-04-06T06:10:11.191Z,37.77
2019-04-06T06:12:41.262Z,38.60
2019-04-06T06:15:11.112Z,38.97
2019-04-06T06:17:40.545Z,38.90
2019-04-06T06:20:10.332Z,43.17
2019-04-06T06:22:39.996Z,41.87
2019-04-06T06:25:09.973Z,38.00
2019-04-06T06:27:39.364Z,39.57
2019-04-06T06:30:09.710Z,42.13
2019-04-06T06:32:39.409Z,40.67
2019-04-06T06:35:09.105Z,38.43
2019-04-06T06:37:38.837Z,40.30
2019-04-06T06:40:08.834Z,37.20
2019-04-06T06:42:38.481Z,38.13
2019-04-06T06:45:08.662Z,37.40
2019-04-06T06:47:38.429Z,37.73
2019-04-06T06:50:08.720Z,39.70
2019-04-06T06:52:38.319Z,35.93
2019-04-06T06:55:09.323Z,36.97
2019-04-06T06:57:38.903Z,37.03
2019-04-06T07:00:09.094Z,34.60
2019-04-06T07:02:38.789Z,36.27
2019-04-06T07:05:08.900Z,49.03
2019-04-06T07:07:38.619Z,41.80
2019-04-06T07:10:08.825Z,42.60
2019-04-06T07:12:38.247Z,34.17
2019-04-06T07:15:08.369Z,39.73
2019-04-06T07:17:38.182Z,42.17
2019-04-06T07:20:08.211Z,55.07
2019-04-06T07:22:37.907Z,41.17
2019-04-06T07:25:08.263Z,68.80
2019-04-06T07:27:38.078Z,72.57
2019-04-06T07:30:07.807Z,41.60
2019-04-06T07:32:37.253Z,40.23
2019-04-06T07:35:07.359Z,41.77
2019-04-06T07:37:36.770Z,44.13
2019-04-06T07:40:07.876Z,37.83
2019-04-06T07:42:37.446Z,33.47
2019-04-06T07:45:07.240Z,32.93
2019-04-06T07:47:37.033Z,38.73
2019-04-06T07:50:07.722Z,34.87
2019-04-06T07:52:37.386Z,41.23
2019-04-06T07:55:07.587Z,37.63
2019-04-06T07:57:37.006Z,33.10
2019-04-06T08:00:07.192Z,37.47
2019-04-06T08:02:37.035Z,37.37
2019-04-06T08:05:06.855Z,33.53
2019-04-06T08:07:36.302Z,40.03
2019-04-06T08:10:06.879Z,30.90
2019-04-06T08:12:36.678Z,35.40
2019-04-06T08:15:07.054Z,42.30
2019-04-06T08:17:36.943Z,38.70
2019-04-06T08:20:07.544Z,39.23
2019-04-06T08:22:37.382Z,37.90
2019-04-06T08:25:07.498Z,33.23
2019-04-06T08:27:37.323Z,32.27
2019-04-06T08:30:08.050Z,33.67
2019-04-06T08:32:37.951Z,30.03
2019-04-06T08:35:07.852Z,37.03
2019-04-06T08:37:37.432Z,34.03
2019-04-06T08:40:07.606Z,30.17
2019-04-06T08:42:37.083Z,32.17
2019-04-06T08:45:07.217Z,29.77
2019-04-06T08:47:36.735Z,34.03
2019-04-06T08:50:07.571Z,29.87
2019-04-06T08:52:37.361Z,28.73
2019-04-06T08:55:07.601Z,42.97
2019-04-06T08:57:37.462Z,27.70
2019-04-06T09:00:07.574Z,32.23
2019-04-06T09:02:37.090Z,35.83
2019-04-06T09:05:06.974Z,39.07
2019-04-06T09:07:36.642Z,26.43
2019-04-06T09:10:07.015Z,27.67
2019-04-06T09:12:36.595Z,25.90
2019-04-06T09:15:06.402Z,29.70
2019-04-06T09:17:35.893Z,33.60
2019-04-06T09:20:07.043Z,25.93
2019-04-06T09:22:36.782Z,26.50
2019-04-06T09:25:07.148Z,35.43
2019-04-06T09:27:36.554Z,32.47
2019-04-06T09:30:06.571Z,34.43
2019-04-06T09:32:36.395Z,25.27
2019-04-06T09:35:06.787Z,27.83
2019-04-06T09:37:36.492Z,28.67
2019-04-06T09:40:07.229Z,37.30
2019-04-06T09:42:36.969Z,29.03
2019-04-06T09:45:30.223Z,28.43
2019-04-06T09:48:18.835Z,33.43
2019-04-06T09:51:25.832Z,31.50
2019-04-06T09:54:06.654Z,30.60
2019-04-06T09:56:55.931Z,31.30
2019-04-06T09:59:43.282Z,30.03
2019-04-06T10:02:32.073Z,23.47
2019-04-06T10:05:20.774Z,22.13
2019-04-06T10:08:08.185Z,27.13
2019-04-06T10:10:56.573Z,22.83
2019-04-06T10:13:37.741Z,32.13
2019-04-06T10:16:22.410Z,28.53
2019-04-06T10:18:58.081Z,22.07
2019-04-06T10:21:52.957Z,24.70
2019-04-06T10:24:33.095Z,25.73
2019-04-06T10:27:27.660Z,21.87
2019-04-06T10:30:15.239Z,22.17
2019-04-06T10:32:57.600Z,22.57
2019-04-06T10:35:52.332Z,21.67
2019-04-06T10:38:59.111Z,23.10
2019-04-06T10:41:43.315Z,23.77
2019-04-06T10:44:35.047Z,22.53
2019-04-06T10:47:23.210Z,21.97
2019-04-06T10:50:09.929Z,25.17
2019-04-06T10:52:57.340Z,23.40
2019-04-06T10:55:54.800Z,26.00
2019-04-06T10:58:44.643Z,27.03
2019-04-06T11:01:30.315Z,26.07
2019-04-06T11:04:24.915Z,24.27
2019-04-06T11:07:22.539Z,24.90
2019-04-06T11:10:10.148Z,25.73
2019-04-06T11:12:57.551Z,25.87
2019-04-06T11:15:35.794Z,27.50
2019-04-06T11:18:23.737Z,27.97
2019-04-06T11:21:11.151Z,23.87
2019-04-06T11:23:58.348Z,25.33
2019-04-06T11:26:37.691Z,23.07
2019-04-06T11:29:20.209Z,22.57
2019-04-06T11:32:12.076Z,23.00
2019-04-06T11:35:00.574Z,23.73
2019-04-06T11:37:48.072Z,22.70
2019-04-06T11:40:36.767Z,24.83
2019-04-06T11:43:18.770Z,24.87
2019-04-06T11:46:10.538Z,24.87
2019-04-06T11:48:49.933Z,24.87
2019-04-06T11:51:37.599Z,25.83
2019-04-06T11:54:38.572Z,34.20
2019-04-06T11:57:23.007Z,25.80
2019-04-06T12:00:10.599Z,24.93
2019-04-06T12:03:11.670Z,27.40
2019-04-06T12:05:52.232Z,25.93
2019-04-06T12:08:49.925Z,26.30
2019-04-06T12:11:47.915Z,30.70
2019-04-06T12:14:36.525Z,25.07
2019-04-06T12:17:15.498Z,28.40
2019-04-06T12:20:02.572Z,26.80
2019-04-06T12:22:45.146Z,24.23
2019-04-06T12:25:37.039Z,24.40
2019-04-06T12:28:37.752Z,24.50
2019-04-06T12:31:32.127Z,99.70
2019-04-06T12:34:19.611Z,96.10
2019-04-06T12:37:04.875Z,28.03
2019-04-06T12:39:56.934Z,34.70
2019-04-06T12:42:45.596Z,27.07
2019-04-06T12:45:52.442Z,27.50
2019-04-06T12:48:53.223Z,30.23
2019-04-06T12:51:54.345Z,22.43
2019-04-06T12:54:34.271Z,22.70
2019-04-06T12:57:16.709Z,21.70
2019-04-06T12:59:57.561Z,21.20
2019-04-06T13:02:46.217Z,21.90
2019-04-06T13:05:43.875Z,21.77
2019-04-06T13:08:28.140Z,19.70
2019-04-06T13:11:23.038Z,18.60
2019-04-06T13:14:23.904Z,19.77
2019-04-06T13:17:21.440Z,17.40
2019-04-06T13:20:08.733Z,18.60
2019-04-06T13:23:07.002Z,17.43
2019-04-06T13:25:56.851Z,15.40
2019-04-06T13:28:46.004Z,16.60
2019-04-06T13:31:38.302Z,15.97
2019-04-06T13:34:22.569Z,16.17
2019-04-06T13:37:17.084Z,15.83
2019-04-06T13:40:11.736Z,16.00
2019-04-06T13:43:03.332Z,16.27
2019-04-06T13:45:50.767Z,16.13
2019-04-06T13:48:30.729Z,17.80
2019-04-06T13:51:13.559Z,16.53
2019-04-06T13:54:14.517Z,20.93
2019-04-06T13:57:06.321Z,19.93
2019-04-06T14:00:10.053Z,20.67
2019-04-06T14:02:55.823Z,17.90
2019-04-06T14:05:50.294Z,19.47
2019-04-06T14:08:42.092Z,27.20
2019-04-06T14:11:29.192Z,27.10
2019-04-06T14:14:29.016Z,26.87
2019-04-06T14:17:13.723Z,26.73
2019-04-06T14:20:08.377Z,28.27
2019-04-06T14:22:55.565Z,32.33
2019-04-06T14:25:39.239Z,28.63
2019-04-06T14:28:16.701Z,28.70
2019-04-06T14:31:05.787Z,31.33
2019-04-06T14:34:04.104Z,30.97
2019-04-06T14:36:55.609Z,27.80
2019-04-06T14:39:43.307Z,28.73
2019-04-06T14:42:20.040Z,30.30
2019-04-06T14:45:14.693Z,27.87
2019-04-06T14:48:03.804Z,26.83
2019-04-06T14:50:50.028Z,29.83
2019-04-06T14:53:49.106Z,30.27
2019-04-06T14:56:25.765Z,31.50
2019-04-06T14:59:24.023Z,30.83
2019-04-06T15:02:25.185Z,33.53
2019-04-06T15:05:16.770Z,37.50
2019-04-06T15:07:53.203Z,31.20
2019-04-06T15:10:47.827Z,32.30
2019-04-06T15:13:45.354Z,31.57
2019-04-06T15:16:21.268Z,31.40
2019-04-06T15:19:04.042Z,31.50
2019-04-06T15:21:56.335Z,36.30
2019-04-06T15:24:45.411Z,34.97
2019-04-06T15:27:39.987Z,31.10
2019-04-06T15:30:35.255Z,38.53
2019-04-06T15:33:24.370Z,34.27
2019-04-06T15:36:22.076Z,36.40
2019-04-06T15:39:00.429Z,34.83
2019-04-06T15:41:55.772Z,38.67
2019-04-06T15:44:47.021Z,33.50
2019-04-06T15:47:36.414Z,31.83
2019-04-06T15:50:34.199Z,32.73
2019-04-06T15:53:28.878Z,34.13
2019-04-06T15:56:17.565Z,31.97
2019-04-06T15:59:05.978Z,33.43
2019-04-06T16:02:06.771Z,34.00
2019-04-06T16:05:01.945Z,29.97
2019-04-06T16:07:56.294Z,30.83
2019-04-06T16:10:56.028Z,37.97
2019-04-06T16:13:50.212Z,32.97
2019-04-06T16:16:38.109Z,32.97
2019-04-06T16:19:29.599Z,38.07
2019-04-06T16:22:27.631Z,42.67
2019-04-06T16:25:16.200Z,36.20
2019-04-06T16:28:24.400Z,31.13
2019-04-06T16:31:04.158Z,34.50
2019-04-06T16:33:48.815Z,35.50
2019-04-06T16:36:46.863Z,34.47
2019-04-06T16:39:50.924Z,35.37
2019-04-06T16:42:51.739Z,41.60
2019-04-06T16:45:38.908Z,35.53
2019-04-06T16:48:27.786Z,36.07
2019-04-06T16:51:25.058Z,35.67
2019-04-06T16:54:13.778Z,40.73
2019-04-06T16:56:51.227Z,46.33
2019-04-06T16:59:36.405Z,41.53
2019-04-06T17:02:25.329Z,47.50
2019-04-06T17:05:20.207Z,43.93
2019-04-06T17:08:16.837Z,45.63
2019-04-06T17:11:01.820Z,47.40
2019-04-06T17:13:56.241Z,46.13
2019-04-06T17:16:51.287Z,44.67
2019-04-06T17:19:39.079Z,40.97
2019-04-06T17:22:46.167Z,43.30
2019-04-06T17:25:31.530Z,38.87
2019-04-06T17:28:17.000Z,34.47
2019-04-06T17:30:58.804Z,53.00
2019-04-06T17:33:56.362Z,56.37
2019-04-06T17:36:48.319Z,45.67
2019-04-06T17:39:34.557Z,48.37
2019-04-06T17:42:21.700Z,41.80
2019-04-06T17:45:25.454Z,47.43
2019-04-06T17:48:20.322Z,33.83
2019-04-06T17:51:08.155Z,38.30
2019-04-06T17:54:06.229Z,37.40
2019-04-06T17:57:13.175Z,37.40
2019-04-06T17:59:56.439Z,38.07
2019-04-06T18:02:48.676Z,31.23
2019-04-06T18:05:26.079Z,31.93
2019-04-06T18:08:24.618Z,36.27
2019-04-06T18:11:13.919Z,34.10
2019-04-06T18:13:48.267Z,29.17
2019-04-06T18:16:20.860Z,45.43
2019-04-06T18:18:51.091Z,48.30
2019-04-06T18:21:21.006Z,41.53
2019-04-06T18:23:50.936Z,39.40
2019-04-06T18:26:21.423Z,38.20
2019-04-06T18:28:51.576Z,39.03
2019-04-06T18:31:40.437Z,77.40
2019-04-06T18:34:10.292Z,37.03
2019-04-06T18:37:04.875Z,35.20
2019-04-06T18:39:34.573Z,47.80
2019-04-06T18:42:04.457Z,30.30
2019-04-06T18:44:34.455Z,84.87
2019-04-06T18:47:04.142Z,53.93
2019-04-06T18:49:34.218Z,36.63
2019-04-06T18:52:04.141Z,31.60
2019-04-06T18:54:33.713Z,26.67
2019-04-06T18:57:03.211Z,23.40
2019-04-06T18:59:32.687Z,24.43
2019-04-06T19:02:02.300Z,20.73
2019-04-06T19:04:31.848Z,20.67
2019-04-06T19:07:01.451Z,22.67
2019-04-06T19:09:31.545Z,25.53
2019-04-06T19:12:01.302Z,23.97
2019-04-06T19:14:30.975Z,23.83
2019-04-06T19:17:00.951Z,23.40
2019-04-06T19:19:30.813Z,17.90
2019-04-06T19:22:00.382Z,18.33
2019-04-06T19:24:30.300Z,12.70
2019-04-06T19:27:00.387Z,12.73
2019-04-06T19:29:29.889Z,28.90
2019-04-06T19:31:59.496Z,25.63
2019-04-06T19:34:29.805Z,21.33
2019-04-06T19:37:00.211Z,20.30
2019-04-06T19:39:29.993Z,12.50
2019-04-06T19:41:59.581Z,9.00
2019-04-06T19:44:29.779Z,10.97
2019-04-06T19:46:59.743Z,14.20
2019-04-06T19:49:29.646Z,14.50
2019-04-06T19:51:59.527Z,11.23
2019-04-06T19:54:29.233Z,12.73
2019-04-06T19:57:00.525Z,11.03
2019-04-06T19:59:29.931Z,13.17
2019-04-06T20:01:59.807Z,14.70
2019-04-06T20:04:29.739Z,14.53
2019-04-06T20:06:59.444Z,14.50
2019-04-06T20:09:29.214Z,16.60
2019-04-06T20:12:06.106Z,13.67
2019-04-06T20:14:30.436Z,13.07
2019-04-06T20:17:00.120Z,11.23
2019-04-06T20:19:30.088Z,10.30
2019-04-06T20:21:59.965Z,12.03
2019-04-06T20:24:30.049Z,14.30
2019-04-06T20:26:59.778Z,12.17
2019-04-06T20:29:29.528Z,12.50
2019-04-06T20:31:59.126Z,9.63
2019-04-06T20:34:29.373Z,12.03
2019-04-06T20:36:59.302Z,11.73
2019-04-06T20:39:29.144Z,12.30
2019-04-06T20:41:58.838Z,11.47
2019-04-06T20:44:28.445Z,11.10
2019-04-06T20:46:58.410Z,10.20
2019-04-06T20:49:28.202Z,10.30
2019-04-06T20:51:59.027Z,13.70
2019-04-06T20:54:29.763Z,11.43
2019-04-06T20:56:59.678Z,11.10
2019-04-06T20:59:29.484Z,10.20
2019-04-06T21:01:58.971Z,12.23
2019-04-06T21:04:29.148Z,14.93
2019-04-06T21:06:59.080Z,20.73
2019-04-06T21:09:28.606Z,15.33
2019-04-06T21:11:58.319Z,12.70
2019-04-06T21:14:28.289Z,10.90
2019-04-06T21:16:57.895Z,12.27
2019-04-06T21:19:28.159Z,16.40
2019-04-06T21:21:59.497Z,12.60
2019-04-06T21:24:29.339Z,12.93
2019-04-06T21:26:58.858Z,12.93
2019-04-06T21:29:28.339Z,11.73
2019-04-06T21:31:58.489Z,12.07
2019-04-06T21:34:28.191Z,11.70
2019-04-06T21:36:57.643Z,13.60
2019-04-06T21:39:27.910Z,14.63
2019-04-06T21:41:58.103Z,11.73
2019-04-06T21:44:27.945Z,11.53
2019-04-06T21:46:57.756Z,15.47
2019-04-06T21:49:27.966Z,25.70
2019-04-06T21:51:57.585Z,21.03
2019-04-06T21:54:27.118Z,23.80
2019-04-06T21:56:57.169Z,16.00
2019-04-06T21:59:27.009Z,21.97
2019-04-06T22:01:56.956Z,25.17
2019-04-06T22:04:27.560Z,14.00
2019-04-06T22:06:58.278Z,16.77
2019-04-06T22:09:27.897Z,13.60
2019-04-06T22:11:57.387Z,10.87
2019-04-06T22:14:27.114Z,14.57
2019-04-06T22:16:57.237Z,14.07
2019-04-06T22:19:26.861Z,12.80
2019-04-06T22:21:56.556Z,12.83
2019-04-06T22:24:26.402Z,16.40
2019-04-06T22:26:56.222Z,20.23
2019-04-06T22:29:25.650Z,16.67
2019-04-06T22:31:55.304Z,13.03
2019-04-06T22:34:35.388Z,16.50
2019-04-06T22:36:56.024Z,20.40
2019-04-06T22:39:26.028Z,19.13
2019-04-06T22:41:55.870Z,15.50
2019-04-06T22:44:25.514Z,19.33
2019-04-06T22:46:55.318Z,20.60
2019-04-06T22:49:25.084Z,15.77
2019-04-06T22:51:54.981Z,14.10
2019-04-06T22:54:24.777Z,16.33
2019-04-06T22:56:54.531Z,14.00
2019-04-06T22:59:24.336Z,12.50
2019-04-06T23:01:53.822Z,13.33
2019-04-06T23:04:48.551Z,20.63
2019-04-06T23:07:18.992Z,30.27
2019-04-06T23:09:48.670Z,19.57
2019-04-06T23:12:18.407Z,13.87
2019-04-06T23:14:48.109Z,15.07
2019-04-06T23:17:18.005Z,15.60
2019-04-06T23:19:47.584Z,14.67
2019-04-06T23:22:17.075Z,17.80
2019-04-06T23:24:46.910Z,16.57
2019-04-06T23:27:16.287Z,16.83
2019-04-06T23:29:45.757Z,13.47
2019-04-06T23:32:15.893Z,19.53
2019-04-06T23:34:57.390Z,17.33
2019-04-06T23:37:17.021Z,15.43
2019-04-06T23:39:46.883Z,22.47
2019-04-06T23:42:16.674Z,16.17
2019-04-06T23:44:46.511Z,18.10
2019-04-06T23:47:16.525Z,19.67
2019-04-06T23:49:46.242Z,16.83
2019-04-06T23:52:15.886Z,17.03
2019-04-06T23:54:45.476Z,16.43
2019-04-06T23:57:15.299Z,17.37
2019-04-06T23:59:45.091Z,19.73
